Forbing, Louisiana
Current Conditions -  °F | °C
As of 7:56 AM on Sunday 21 Dec 2014 (Local Time) from KSHV Reporting Station
Light Fog Light Fog  
Wind Chill: 38°   Ceiling: Unl
Heat Index: 38°   Visibility: 7mi
Dew Point: 36°   Wind: 0mph
Humidity: 93%   Direction: NA
Pressure: 30.15"   Gusts: NA
Location:  32.3873°N, 93.7356°W
Report Text: KSHV 211356Z 00000KT 7SM MIFG FEW045 SCT270 03/02 A3015 RMK AO2 SLP210 T00330022 $
Loading
Personal Weather Stations






























Interactive Weather Map New forecast layout! Learn more

10-Day Weather Forecast

Advertisements
Track Severe Weather on mobile